createdAt,value
2024-03-05T00:00:27.039Z,62.56
2024-03-05T00:02:53.637Z,62.54
2024-03-05T00:05:20.235Z,62.37
2024-03-05T00:07:47.018Z,62.44
2024-03-05T00:10:14.604Z,62.39
2024-03-05T00:12:41.528Z,62.50
2024-03-05T00:15:08.622Z,62.35
2024-03-05T00:17:35.212Z,62.34
2024-03-05T00:20:02.202Z,62.57
2024-03-05T00:22:29.382Z,62.60
2024-03-05T00:24:56.281Z,62.74
2024-03-05T00:27:22.924Z,62.60
2024-03-05T00:29:49.615Z,62.89
2024-03-05T00:32:17.122Z,62.77
2024-03-05T00:34:43.764Z,62.90
2024-03-05T00:37:10.409Z,62.97
2024-03-05T00:39:37.047Z,63.00
2024-03-05T00:42:04.831Z,63.02
2024-03-05T00:44:31.464Z,63.13
2024-03-05T00:46:58.315Z,63.00
2024-03-05T00:49:25.162Z,63.13
2024-03-05T00:51:51.802Z,62.91
2024-03-05T00:54:18.443Z,63.08
2024-03-05T00:56:45.026Z,62.85
2024-03-05T00:59:12.544Z,62.98
2024-03-05T01:01:40.636Z,63.06
2024-03-05T01:04:09.131Z,63.08
2024-03-05T01:06:35.985Z,63.10
2024-03-05T01:09:02.729Z,63.16
2024-03-05T01:11:31.524Z,63.12
2024-03-05T01:13:58.793Z,63.19
2024-03-05T01:16:27.568Z,63.23
2024-03-05T01:18:56.661Z,63.22
2024-03-05T01:21:23.255Z,63.11
2024-03-05T01:23:49.994Z,63.27
2024-03-05T01:26:16.726Z,63.32
2024-03-05T01:28:43.303Z,63.29
2024-03-05T01:31:10.198Z,62.96
2024-03-05T01:33:37.352Z,63.25
2024-03-05T01:36:04.696Z,63.55
2024-03-05T01:38:31.466Z,63.36
2024-03-05T01:40:58.131Z,63.46
2024-03-05T01:43:24.993Z,63.46
2024-03-05T01:45:52.074Z,63.26
2024-03-05T01:48:19.475Z,63.38
2024-03-05T01:50:46.131Z,63.46
2024-03-05T01:53:16.531Z,63.50
2024-03-05T01:55:43.616Z,63.54
2024-03-05T01:58:10.375Z,63.39
2024-03-05T02:00:38.000Z,63.48
2024-03-05T02:03:06.191Z,63.37
2024-03-05T02:05:34.080Z,63.56
2024-03-05T02:08:03.145Z,63.53
2024-03-05T02:10:29.975Z,63.49
2024-03-05T02:12:56.604Z,63.47
2024-03-05T02:15:23.188Z,63.49
2024-03-05T02:17:51.440Z,63.58
2024-03-05T02:20:18.493Z,63.63
2024-03-05T02:22:45.889Z,63.53
2024-03-05T02:25:13.306Z,63.60
2024-03-05T02:27:41.606Z,63.45
2024-03-05T02:30:12.315Z,63.57
2024-03-05T02:32:42.181Z,63.46
2024-03-05T02:35:12.539Z,63.54
2024-03-05T02:37:40.026Z,63.46
2024-03-05T02:40:11.302Z,63.69
2024-03-05T02:42:38.395Z,63.59
2024-03-05T02:45:06.270Z,63.54
2024-03-05T02:47:33.306Z,63.64
2024-03-05T02:50:00.685Z,63.75
2024-03-05T02:52:29.598Z,63.52
2024-03-05T02:54:56.297Z,63.54
2024-03-05T02:57:22.874Z,63.55
2024-03-05T02:59:49.510Z,63.47
2024-03-05T03:02:16.197Z,63.53
2024-03-05T03:04:42.801Z,63.55
2024-03-05T03:07:09.440Z,63.65
2024-03-05T03:09:36.503Z,63.71
2024-03-05T03:12:03.327Z,63.71
2024-03-05T03:14:29.916Z,63.65
2024-03-05T03:16:58.549Z,63.64
2024-03-05T03:19:25.267Z,63.74
2024-03-05T03:21:52.551Z,63.63
2024-03-05T03:24:19.269Z,63.70
2024-03-05T03:26:46.268Z,63.96
2024-03-05T03:29:13.069Z,63.75
2024-03-05T03:31:47.429Z,64.00
2024-03-05T03:34:17.463Z,63.84
2024-03-05T03:36:44.785Z,63.99
2024-03-05T03:39:24.869Z,63.78
2024-03-05T03:41:56.263Z,63.90
2024-03-05T03:44:23.598Z,63.95
2024-03-05T03:46:53.649Z,63.83
2024-03-05T03:49:24.996Z,63.97
2024-03-05T03:51:53.241Z,63.80
2024-03-05T03:54:19.909Z,64.04
2024-03-05T03:56:47.119Z,63.82
2024-03-05T03:59:16.709Z,63.80
2024-03-05T04:01:49.700Z,63.89
2024-03-05T04:04:16.918Z,63.79
2024-03-05T04:06:43.940Z,63.89
2024-03-05T04:09:10.648Z,63.76
2024-03-05T04:11:37.643Z,63.70
2024-03-05T04:14:04.896Z,63.80
2024-03-05T04:16:32.220Z,63.82
2024-03-05T04:18:59.172Z,63.73
2024-03-05T04:21:26.823Z,63.60
2024-03-05T04:23:53.968Z,63.61
2024-03-05T04:26:28.367Z,63.89
2024-03-05T04:29:00.832Z,63.75
2024-03-05T04:31:37.581Z,63.83
2024-03-05T04:34:08.736Z,63.74
2024-03-05T04:36:38.285Z,63.69
2024-03-05T04:39:05.201Z,63.79
2024-03-05T04:41:31.879Z,63.80
2024-03-05T04:43:58.511Z,63.82
2024-03-05T04:46:26.087Z,63.93
2024-03-05T04:48:52.792Z,64.06
2024-03-05T04:51:19.688Z,64.25
2024-03-05T04:53:46.262Z,64.26
2024-03-05T04:56:13.570Z,64.39
2024-03-05T04:58:40.376Z,64.38
2024-03-05T05:01:07.057Z,64.32
2024-03-05T05:03:33.768Z,64.37
2024-03-05T05:06:01.392Z,64.48
2024-03-05T05:08:28.036Z,64.36
2024-03-05T05:10:54.751Z,64.45
2024-03-05T05:13:21.682Z,64.42
2024-03-05T05:15:48.954Z,64.58
2024-03-05T05:18:15.544Z,64.35
2024-03-05T05:20:42.500Z,64.41
2024-03-05T05:23:09.413Z,64.15
2024-03-05T05:25:36.154Z,64.07
2024-03-05T05:28:02.842Z,64.18
2024-03-05T05:30:29.437Z,64.10
2024-03-05T05:32:56.222Z,64.01
2024-03-05T05:35:23.033Z,64.02
2024-03-05T05:37:49.615Z,64.12
2024-03-05T05:40:20.810Z,64.12
2024-03-05T05:42:49.741Z,64.00
2024-03-05T05:45:16.866Z,64.18
2024-03-05T05:47:50.608Z,64.05
2024-03-05T05:50:21.110Z,63.98
2024-03-05T05:52:49.554Z,63.93
2024-03-05T05:55:20.685Z,63.91
2024-03-05T05:57:51.020Z,64.00
2024-03-05T06:00:25.939Z,64.10
2024-03-05T06:02:54.239Z,64.17
2024-03-05T06:05:24.526Z,64.23
2024-03-05T06:07:51.311Z,64.04
2024-03-05T06:10:20.998Z,64.00
2024-03-05T06:12:47.685Z,64.14
2024-03-05T06:15:14.391Z,63.95
2024-03-05T06:17:41.645Z,64.19
2024-03-05T06:20:11.621Z,64.19
2024-03-05T06:22:41.885Z,64.16
2024-03-05T06:25:09.553Z,64.22
2024-03-05T06:27:39.748Z,64.07
2024-03-05T06:30:14.402Z,64.33
2024-03-05T06:32:44.770Z,64.32
2024-03-05T06:35:12.290Z,64.22
2024-03-05T06:37:45.004Z,64.15
2024-03-05T06:40:12.946Z,64.09
2024-03-05T06:42:43.123Z,63.91
2024-03-05T06:45:10.124Z,64.04
2024-03-05T06:47:40.525Z,64.26
2024-03-05T06:50:08.782Z,63.95
2024-03-05T06:52:54.262Z,64.17
2024-03-05T06:55:39.495Z,63.99
2024-03-05T06:58:06.058Z,64.08
2024-03-05T07:00:32.673Z,63.86
2024-03-05T07:02:59.282Z,63.98
2024-03-05T07:05:25.907Z,64.10
2024-03-05T07:07:52.567Z,63.93
2024-03-05T07:10:22.582Z,63.88
2024-03-05T07:12:52.145Z,63.74
2024-03-05T07:15:18.850Z,63.85
2024-03-05T07:17:45.497Z,63.75
2024-03-05T07:20:23.978Z,63.85
2024-03-05T07:22:52.443Z,63.82
2024-03-05T07:25:19.319Z,63.76
2024-03-05T07:27:48.040Z,63.65
2024-03-05T07:30:18.490Z,63.62
2024-03-05T07:32:49.446Z,63.57
2024-03-05T07:35:18.450Z,63.58
2024-03-05T07:37:49.259Z,63.39
2024-03-05T07:40:22.034Z,63.26
2024-03-05T07:42:49.919Z,63.08
2024-03-05T07:45:16.868Z,63.20
2024-03-05T07:47:44.482Z,63.07
2024-03-05T07:50:13.365Z,63.09
2024-03-05T07:52:40.919Z,63.04
2024-03-05T07:55:12.352Z,63.08
2024-03-05T07:57:41.600Z,63.09
2024-03-05T08:00:13.517Z,62.94
2024-03-05T08:02:43.788Z,62.93
2024-03-05T08:05:10.729Z,62.94
2024-03-05T08:07:37.876Z,63.01
2024-03-05T08:10:09.036Z,62.97
2024-03-05T08:12:36.841Z,62.98
2024-03-05T08:15:04.419Z,62.91
2024-03-05T08:17:37.050Z,62.88
2024-03-05T08:20:05.013Z,62.71
2024-03-05T08:22:32.285Z,62.72
2024-03-05T08:24:58.993Z,62.59
2024-03-05T08:27:26.953Z,62.49
2024-03-05T08:29:53.555Z,62.50
2024-03-05T08:32:20.196Z,62.33
2024-03-05T08:34:46.972Z,62.25
2024-03-05T08:37:16.877Z,62.16
2024-03-05T08:39:43.595Z,62.15
2024-03-05T08:42:10.483Z,62.04
2024-03-05T08:44:37.288Z,61.77
2024-03-05T08:47:04.271Z,61.69
2024-03-05T08:49:30.870Z,61.65
2024-03-05T08:51:59.662Z,61.74
2024-03-05T08:54:27.087Z,61.54
2024-03-05T08:56:53.604Z,61.31
2024-03-05T08:59:20.524Z,61.32
2024-03-05T09:01:47.361Z,61.24
2024-03-05T09:04:14.017Z,61.14
2024-03-05T09:06:41.817Z,61.03
2024-03-05T09:09:08.570Z,61.03
2024-03-05T09:11:36.421Z,61.13
2024-03-05T09:14:03.994Z,60.93
2024-03-05T09:16:31.591Z,60.90
2024-03-05T09:18:58.802Z,61.14
2024-03-05T09:21:25.335Z,61.03
2024-03-05T09:23:51.989Z,61.38
2024-03-05T09:26:18.621Z,61.60
2024-03-05T09:28:45.337Z,61.42
2024-03-05T09:31:12.362Z,61.65
2024-03-05T09:33:39.952Z,61.51
2024-03-05T09:36:09.634Z,61.74
2024-03-05T09:38:36.311Z,61.78
2024-03-05T09:41:03.408Z,61.79
2024-03-05T09:43:31.167Z,61.45
2024-03-05T09:46:06.285Z,61.47
2024-03-05T09:48:34.632Z,61.58
2024-03-05T09:51:01.624Z,61.73
2024-03-05T09:53:29.141Z,61.82
2024-03-05T09:55:55.887Z,62.03
2024-03-05T09:58:40.531Z,61.88
2024-03-05T10:01:09.099Z,61.94
2024-03-05T10:03:37.241Z,61.73
2024-03-05T10:06:06.194Z,61.52
2024-03-05T10:08:32.843Z,61.78
2024-03-05T10:11:06.085Z,61.69
2024-03-05T10:13:37.197Z,61.81
2024-03-05T10:16:20.526Z,62.13
2024-03-05T10:18:48.367Z,61.94
2024-03-05T10:21:22.886Z,62.03
2024-03-05T10:23:58.712Z,62.04
2024-03-05T10:26:28.907Z,61.93
2024-03-05T10:28:58.067Z,61.66
2024-03-05T10:31:26.533Z,61.77
2024-03-05T10:33:57.574Z,61.48
2024-03-05T10:36:29.604Z,61.45
2024-03-05T10:38:56.812Z,61.65
2024-03-05T10:41:31.775Z,61.30
2024-03-05T10:44:02.582Z,61.25
2024-03-05T10:46:33.574Z,61.49
2024-03-05T10:49:01.745Z,61.49
2024-03-05T10:51:32.296Z,61.62
2024-03-05T10:54:02.756Z,61.52
2024-03-05T10:56:37.141Z,61.73
2024-03-05T10:59:42.099Z,61.74
2024-03-05T11:02:13.235Z,61.94
2024-03-05T11:04:43.756Z,62.17
2024-03-05T11:07:12.351Z,62.16
2024-03-05T11:09:39.980Z,62.20
2024-03-05T11:12:17.751Z,62.20
2024-03-05T11:14:47.650Z,61.80
2024-03-05T11:17:17.040Z,62.23
2024-03-05T11:19:44.371Z,62.23
2024-03-05T11:22:26.080Z,62.16
2024-03-05T11:24:56.762Z,61.99
2024-03-05T11:27:24.615Z,62.14
2024-03-05T11:30:20.538Z,62.35
2024-03-05T11:32:52.168Z,62.13
2024-03-05T11:35:21.731Z,62.44
2024-03-05T11:37:56.376Z,62.15
2024-03-05T11:40:34.126Z,62.32
2024-03-05T11:43:01.678Z,62.21
2024-03-05T11:45:45.011Z,62.29
2024-03-05T11:48:16.655Z,62.54
2024-03-05T11:50:44.111Z,62.38
2024-03-05T11:53:11.415Z,62.56
2024-03-05T11:55:38.165Z,62.23
2024-03-05T11:58:05.680Z,62.56
2024-03-05T12:00:32.278Z,62.30
2024-03-05T12:02:59.092Z,62.41
2024-03-05T12:05:26.878Z,62.55
2024-03-05T12:08:03.491Z,62.53
2024-03-05T12:10:32.854Z,62.63
2024-03-05T12:13:02.942Z,62.62
2024-03-05T12:15:30.612Z,62.33
2024-03-05T12:17:57.844Z,62.72
2024-03-05T12:20:24.690Z,62.56
2024-03-05T12:22:51.791Z,62.43
2024-03-05T12:25:20.419Z,62.56
2024-03-05T12:27:48.688Z,62.11
2024-03-05T12:30:16.811Z,62.21
2024-03-05T12:32:45.533Z,62.26
2024-03-05T12:35:15.626Z,62.42
2024-03-05T12:37:42.460Z,62.09
2024-03-05T12:40:15.534Z,62.41
2024-03-05T12:42:42.725Z,62.17
2024-03-05T12:45:19.924Z,62.39
2024-03-05T12:47:56.242Z,62.32
2024-03-05T12:50:23.087Z,62.66
2024-03-05T12:53:00.477Z,62.67
2024-03-05T12:55:28.908Z,62.66
2024-03-05T12:58:12.589Z,62.65
2024-03-05T13:00:40.149Z,62.58
2024-03-05T13:03:08.328Z,62.71
2024-03-05T13:05:35.996Z,62.83
2024-03-05T13:08:03.176Z,62.80
2024-03-05T13:10:30.198Z,62.75
2024-03-05T13:12:56.911Z,62.81
2024-03-05T13:15:23.627Z,62.80
2024-03-05T13:17:53.090Z,62.26
2024-03-05T13:20:20.235Z,62.53
2024-03-05T13:22:47.897Z,62.52
2024-03-05T13:25:17.202Z,62.12
2024-03-05T13:27:45.329Z,62.18
2024-03-05T13:30:18.163Z,62.33
2024-03-05T13:32:49.242Z,62.27
2024-03-05T13:35:17.861Z,62.21
2024-03-05T13:37:45.907Z,62.45
2024-03-05T13:40:13.343Z,62.21
2024-03-05T13:42:40.620Z,62.61
2024-03-05T13:45:13.644Z,62.69
2024-03-05T13:47:40.718Z,62.63
2024-03-05T13:50:11.560Z,62.63
2024-03-05T13:52:41.294Z,62.45
2024-03-05T13:55:12.002Z,62.67
2024-03-05T13:57:39.094Z,62.83
2024-03-05T14:00:10.373Z,62.61
2024-03-05T14:02:37.207Z,62.51
2024-03-05T14:05:04.575Z,62.53
2024-03-05T14:07:31.953Z,62.50
2024-03-05T14:09:58.903Z,62.64
2024-03-05T14:12:27.553Z,62.77
2024-03-05T14:14:54.209Z,62.62
2024-03-05T14:17:24.483Z,62.70
2024-03-05T14:19:51.139Z,63.04
2024-03-05T14:22:18.548Z,62.60
2024-03-05T14:24:45.102Z,62.78
2024-03-05T14:27:13.462Z,62.71
2024-03-05T14:29:41.470Z,62.87
2024-03-05T14:32:08.816Z,62.96
2024-03-05T14:34:35.898Z,62.77
2024-03-05T14:37:04.771Z,63.11
2024-03-05T14:39:31.553Z,62.93
2024-03-05T14:41:58.180Z,62.98
2024-03-05T14:44:24.762Z,62.84
2024-03-05T14:46:51.385Z,63.23
2024-03-05T14:49:18.055Z,62.90
2024-03-05T14:51:44.989Z,62.79
2024-03-05T14:54:11.692Z,62.83
2024-03-05T14:56:38.360Z,63.03
2024-03-05T14:59:05.846Z,63.07
2024-03-05T15:01:33.695Z,62.80
2024-03-05T15:04:01.707Z,62.96
2024-03-05T15:06:28.451Z,62.68
2024-03-05T15:08:55.723Z,63.00
2024-03-05T15:11:23.578Z,62.98
2024-03-05T15:13:51.480Z,62.74
2024-03-05T15:16:19.905Z,62.47
2024-03-05T15:18:47.759Z,62.74
2024-03-05T15:21:17.406Z,63.10
2024-03-05T15:23:44.141Z,62.78
2024-03-05T15:26:11.797Z,63.10
2024-03-05T15:28:38.660Z,63.06
2024-03-05T15:31:10.560Z,63.13
2024-03-05T15:33:43.398Z,63.18
2024-03-05T15:36:09.977Z,63.17
2024-03-05T15:38:36.844Z,63.58
2024-03-05T15:41:05.339Z,63.54
2024-03-05T15:43:35.086Z,63.57
2024-03-05T15:46:01.841Z,63.83
2024-03-05T15:48:31.649Z,63.91
2024-03-05T15:50:59.373Z,63.96
2024-03-05T15:53:26.215Z,63.64
2024-03-05T15:56:02.729Z,63.53
2024-03-05T15:58:44.905Z,63.47
2024-03-05T16:01:12.136Z,63.79
2024-03-05T16:03:52.616Z,63.78
2024-03-05T16:06:29.272Z,63.90
2024-03-05T16:08:56.016Z,63.91
2024-03-05T16:11:25.920Z,63.84
2024-03-05T16:13:52.927Z,63.84
2024-03-05T16:16:21.230Z,63.69
2024-03-05T16:18:47.984Z,64.01
2024-03-05T16:21:14.514Z,64.17
2024-03-05T16:23:41.194Z,64.22
2024-03-05T16:26:07.834Z,64.49
2024-03-05T16:28:38.790Z,64.43
2024-03-05T16:31:06.220Z,64.37
2024-03-05T16:33:33.945Z,64.38
2024-03-05T16:36:00.667Z,64.54
2024-03-05T16:38:27.513Z,64.54
2024-03-05T16:40:54.338Z,64.75
2024-03-05T16:43:21.097Z,64.83
2024-03-05T16:45:48.726Z,64.87
2024-03-05T16:48:15.571Z,64.81
2024-03-05T16:50:42.232Z,64.81
2024-03-05T16:53:10.482Z,65.03
2024-03-05T16:55:37.873Z,65.09
2024-03-05T16:58:11.205Z,65.05
2024-03-05T17:00:52.564Z,65.11
2024-03-05T17:03:21.846Z,65.13
2024-03-05T17:05:51.937Z,65.04
2024-03-05T17:08:21.660Z,65.11
2024-03-05T17:10:49.512Z,65.15
2024-03-05T17:13:20.707Z,65.42
2024-03-05T17:15:54.640Z,65.31
2024-03-05T17:18:24.709Z,65.41
2024-03-05T17:20:52.088Z,65.32
2024-03-05T17:23:25.701Z,65.45
2024-03-05T17:25:53.727Z,65.44
2024-03-05T17:28:20.482Z,65.45
2024-03-05T17:30:49.596Z,65.19
2024-03-05T17:33:17.281Z,65.46
2024-03-05T17:35:43.986Z,65.55
2024-03-05T17:38:14.558Z,65.53
2024-03-05T17:40:41.798Z,65.67
2024-03-05T17:43:08.849Z,65.73
2024-03-05T17:45:35.554Z,65.79
2024-03-05T17:48:08.141Z,65.86
2024-03-05T17:50:38.029Z,66.21
2024-03-05T17:53:06.820Z,66.42
2024-03-05T17:55:35.873Z,66.50
2024-03-05T17:58:05.175Z,66.62
2024-03-05T18:00:42.681Z,66.58
2024-03-05T18:03:12.071Z,66.76
2024-03-05T18:05:39.527Z,67.06
2024-03-05T18:08:06.390Z,67.27
2024-03-05T18:10:35.851Z,67.34
2024-03-05T18:13:05.928Z,67.44
2024-03-05T18:15:33.003Z,67.36
2024-03-05T18:17:59.802Z,67.29
2024-03-05T18:20:30.053Z,67.41
2024-03-05T18:23:00.464Z,67.16
2024-03-05T18:25:28.296Z,67.26
2024-03-05T18:27:57.899Z,67.21
2024-03-05T18:30:36.343Z,67.24
2024-03-05T18:33:07.394Z,67.36
2024-03-05T18:35:35.104Z,67.53
2024-03-05T18:38:04.652Z,67.60
2024-03-05T18:40:34.220Z,67.51
2024-03-05T18:43:00.867Z,67.42
2024-03-05T18:45:33.103Z,67.49
2024-03-05T18:48:05.971Z,67.89
2024-03-05T18:50:36.904Z,67.99
2024-03-05T18:53:06.932Z,68.06
2024-03-05T18:55:37.202Z,68.35
2024-03-05T18:58:07.654Z,68.40
2024-03-05T19:00:34.673Z,68.52
2024-03-05T19:03:01.992Z,68.52
2024-03-05T19:05:28.736Z,68.58
2024-03-05T19:07:55.426Z,68.66
2024-03-05T19:10:22.040Z,68.64
2024-03-05T19:12:48.981Z,68.64
2024-03-05T19:15:18.770Z,68.39
2024-03-05T19:17:48.833Z,68.10
2024-03-05T19:20:16.250Z,67.71
2024-03-05T19:22:43.196Z,67.42
2024-03-05T19:25:13.590Z,66.87
2024-03-05T19:27:42.299Z,66.41
2024-03-05T19:30:11.784Z,66.06
2024-03-05T19:32:40.270Z,65.52
2024-03-05T19:35:11.297Z,64.73
2024-03-05T19:37:41.518Z,64.33
2024-03-05T19:40:09.254Z,64.05
2024-03-05T19:42:35.944Z,63.68
2024-03-05T19:45:02.543Z,63.69
2024-03-05T19:47:30.403Z,63.73
2024-03-05T19:49:57.166Z,63.44
2024-03-05T19:52:24.435Z,63.12
2024-03-05T19:54:51.206Z,62.72
2024-03-05T19:57:19.031Z,62.59
2024-03-05T19:59:45.634Z,62.57
2024-03-05T20:02:12.244Z,63.03
2024-03-05T20:04:39.081Z,63.80
2024-03-05T20:07:10.005Z,63.98
2024-03-05T20:09:45.393Z,63.76
2024-03-05T20:12:12.965Z,63.17
2024-03-05T20:14:39.601Z,62.79
2024-03-05T20:17:08.581Z,62.78
2024-03-05T20:19:40.362Z,61.82
2024-03-05T20:22:41.826Z,61.49
2024-03-05T20:25:23.454Z,61.56
2024-03-05T20:28:13.266Z,61.62
2024-03-05T20:31:02.233Z,61.55
2024-03-05T20:33:43.728Z,61.58
2024-03-05T20:36:23.751Z,61.34
2024-03-05T20:38:58.832Z,61.46
2024-03-05T20:41:36.670Z,61.10
2024-03-05T20:44:11.394Z,60.92
2024-03-05T20:46:40.612Z,60.79
2024-03-05T20:49:10.401Z,60.82
2024-03-05T20:51:37.933Z,60.59
2024-03-05T20:54:10.400Z,60.27
2024-03-05T20:56:36.980Z,60.06
2024-03-05T20:59:05.834Z,60.00
2024-03-05T21:01:32.945Z,59.96
2024-03-05T21:04:01.500Z,60.03
2024-03-05T21:06:28.195Z,60.00
2024-03-05T21:08:54.781Z,60.03
2024-03-05T21:11:22.265Z,59.90
2024-03-05T21:13:48.832Z,60.03
2024-03-05T21:16:15.488Z,60.05
2024-03-05T21:18:42.124Z,60.02
2024-03-05T21:21:14.800Z,60.02
2024-03-05T21:23:42.823Z,60.06
2024-03-05T21:26:20.767Z,59.90
2024-03-05T21:28:56.088Z,59.68
2024-03-05T21:31:22.785Z,59.35
2024-03-05T21:33:50.116Z,59.53
2024-03-05T21:36:16.811Z,59.06
2024-03-05T21:38:43.364Z,59.19
2024-03-05T21:41:13.108Z,59.08
2024-03-05T21:43:41.082Z,59.12
2024-03-05T21:46:09.180Z,58.98
2024-03-05T21:48:35.770Z,58.80
2024-03-05T21:51:06.893Z,58.41
2024-03-05T21:53:39.014Z,58.37
2024-03-05T21:56:06.140Z,58.27
2024-03-05T21:58:32.756Z,57.83
2024-03-05T22:00:59.350Z,57.83
2024-03-05T22:03:25.917Z,57.71
2024-03-05T22:05:52.515Z,57.57
2024-03-05T22:08:19.390Z,57.23
2024-03-05T22:10:46.592Z,57.11
2024-03-05T22:13:13.273Z,56.94
2024-03-05T22:15:39.829Z,57.05
2024-03-05T22:18:06.720Z,56.90
2024-03-05T22:20:33.335Z,56.82
2024-03-05T22:23:00.636Z,56.88
2024-03-05T22:25:27.307Z,56.85
2024-03-05T22:27:53.854Z,56.76
2024-03-05T22:30:20.730Z,56.70
2024-03-05T22:32:47.620Z,56.65
2024-03-05T22:35:14.696Z,56.59
2024-03-05T22:37:41.457Z,56.59
2024-03-05T22:40:09.695Z,56.58
2024-03-05T22:42:36.223Z,56.64
2024-03-05T22:45:04.076Z,56.44
2024-03-05T22:47:30.776Z,56.66
2024-03-05T22:49:58.136Z,56.68
2024-03-05T22:52:24.841Z,56.71
2024-03-05T22:54:51.533Z,56.58
2024-03-05T22:57:18.209Z,56.43
2024-03-05T22:59:44.749Z,56.53
2024-03-05T23:02:11.807Z,56.41
2024-03-05T23:04:38.559Z,56.39
2024-03-05T23:07:05.900Z,56.34
2024-03-05T23:09:32.485Z,56.36
2024-03-05T23:11:59.212Z,56.36
2024-03-05T23:14:25.822Z,56.25
2024-03-05T23:16:52.562Z,56.19
2024-03-05T23:19:19.143Z,56.14
2024-03-05T23:21:45.755Z,56.04
2024-03-05T23:24:12.336Z,55.88
2024-03-05T23:26:38.877Z,55.76
2024-03-05T23:29:05.452Z,55.88
2024-03-05T23:31:32.174Z,55.80
2024-03-05T23:33:58.808Z,55.81
2024-03-05T23:36:25.380Z,55.79
2024-03-05T23:38:52.096Z,55.80
2024-03-05T23:41:28.600Z,55.80
2024-03-05T23:43:58.456Z,55.76
2024-03-05T23:46:25.052Z,55.85
2024-03-05T23:48:51.667Z,55.78
2024-03-05T23:51:18.697Z,55.74
2024-03-05T23:53:45.389Z,55.76
2024-03-05T23:56:12.217Z,55.69
2024-03-05T23:58:41.880Z,55.75
